sensor_id;sensor_type;location;lat;lon;timestamp;P1;durP1;ratioP1;P2;durP2;ratioP2
31770;SDS011;18343;50.152;8.182;2022-12-07T00:02:40;30.13;;;16.80;;
31770;SDS011;18343;50.152;8.182;2022-12-07T00:05:26;31.77;;;17.80;;
31770;SDS011;18343;50.152;8.182;2022-12-07T00:08:14;29.92;;;18.05;;
31770;SDS011;18343;50.152;8.182;2022-12-07T00:11:00;30.73;;;17.75;;
31770;SDS011;18343;50.152;8.182;2022-12-07T00:13:50;31.25;;;17.63;;
31770;SDS011;18343;50.152;8.182;2022-12-07T00:16:37;29.63;;;16.92;;
31770;SDS011;18343;50.152;8.182;2022-12-07T00:19:31;30.65;;;18.40;;
31770;SDS011;18343;50.152;8.182;2022-12-07T00:22:17;32.40;;;17.17;;
31770;SDS011;18343;50.152;8.182;2022-12-07T00:25:02;33.20;;;16.98;;
31770;SDS011;18343;50.152;8.182;2022-12-07T00:27:48;28.90;;;17.42;;
31770;SDS011;18343;50.152;8.182;2022-12-07T00:30:33;29.35;;;16.77;;
31770;SDS011;18343;50.152;8.182;2022-12-07T00:33:19;26.45;;;16.25;;
31770;SDS011;18343;50.152;8.182;2022-12-07T00:36:06;31.30;;;16.20;;
31770;SDS011;18343;50.152;8.182;2022-12-07T00:38:54;31.30;;;16.75;;
31770;SDS011;18343;50.152;8.182;2022-12-07T00:41:41;34.85;;;16.50;;
31770;SDS011;18343;50.152;8.182;2022-12-07T00:44:26;28.45;;;15.85;;
31770;SDS011;18343;50.152;8.182;2022-12-07T00:47:12;28.35;;;16.45;;
31770;SDS011;18343;50.152;8.182;2022-12-07T00:49:57;30.30;;;17.17;;
31770;SDS011;18343;50.152;8.182;2022-12-07T00:52:44;29.15;;;16.30;;
31770;SDS011;18343;50.152;8.182;2022-12-07T00:55:32;27.35;;;15.55;;
31770;SDS011;18343;50.152;8.182;2022-12-07T00:58:18;27.77;;;15.43;;
31770;SDS011;18343;50.152;8.182;2022-12-07T01:01:04;31.33;;;16.42;;
31770;SDS011;18343;50.152;8.182;2022-12-07T01:03:51;27.52;;;15.85;;
31770;SDS011;18343;50.152;8.182;2022-12-07T01:06:38;29.73;;;15.20;;
31770;SDS011;18343;50.152;8.182;2022-12-07T01:09:24;25.88;;;14.48;;
31770;SDS011;18343;50.152;8.182;2022-12-07T01:12:09;26.27;;;14.48;;
31770;SDS011;18343;50.152;8.182;2022-12-07T01:14:55;26.95;;;15.25;;
31770;SDS011;18343;50.152;8.182;2022-12-07T01:17:41;24.17;;;13.88;;
31770;SDS011;18343;50.152;8.182;2022-12-07T01:20:26;27.52;;;13.80;;
31770;SDS011;18343;50.152;8.182;2022-12-07T01:23:12;26.17;;;14.77;;
31770;SDS011;18343;50.152;8.182;2022-12-07T01:25:58;25.48;;;12.88;;
31770;SDS011;18343;50.152;8.182;2022-12-07T01:28:45;22.52;;;12.90;;
31770;SDS011;18343;50.152;8.182;2022-12-07T01:31:31;22.02;;;12.05;;
31770;SDS011;18343;50.152;8.182;2022-12-07T01:34:16;22.88;;;13.13;;
31770;SDS011;18343;50.152;8.182;2022-12-07T01:37:03;25.50;;;12.43;;
31770;SDS011;18343;50.152;8.182;2022-12-07T01:39:48;22.35;;;12.75;;
31770;SDS011;18343;50.152;8.182;2022-12-07T01:42:37;23.98;;;12.27;;
31770;SDS011;18343;50.152;8.182;2022-12-07T01:45:34;22.70;;;11.75;;
31770;SDS011;18343;50.152;8.182;2022-12-07T01:48:26;20.77;;;10.70;;
31770;SDS011;18343;50.152;8.182;2022-12-07T01:51:16;20.92;;;10.85;;
31770;SDS011;18343;50.152;8.182;2022-12-07T01:54:01;18.13;;;10.95;;
31770;SDS011;18343;50.152;8.182;2022-12-07T01:56:54;17.70;;;9.85;;
31770;SDS011;18343;50.152;8.182;2022-12-07T01:59:43;19.50;;;10.32;;
31770;SDS011;18343;50.152;8.182;2022-12-07T02:02:32;17.70;;;9.38;;
31770;SDS011;18343;50.152;8.182;2022-12-07T02:05:22;14.55;;;8.65;;
31770;SDS011;18343;50.152;8.182;2022-12-07T02:08:08;16.55;;;9.65;;
31770;SDS011;18343;50.152;8.182;2022-12-07T02:10:55;17.55;;;9.25;;
31770;SDS011;18343;50.152;8.182;2022-12-07T02:13:41;16.92;;;8.48;;
31770;SDS011;18343;50.152;8.182;2022-12-07T02:16:32;17.00;;;8.35;;
31770;SDS011;18343;50.152;8.182;2022-12-07T02:19:50;13.55;;;7.78;;
31770;SDS011;18343;50.152;8.182;2022-12-07T02:23:04;16.58;;;8.98;;
31770;SDS011;18343;50.152;8.182;2022-12-07T02:30:15;13.65;;;7.57;;
31770;SDS011;18343;50.152;8.182;2022-12-07T02:33:03;13.20;;;7.60;;
31770;SDS011;18343;50.152;8.182;2022-12-07T02:35:55;15.82;;;8.00;;
31770;SDS011;18343;50.152;8.182;2022-12-07T02:38:48;16.05;;;8.10;;
31770;SDS011;18343;50.152;8.182;2022-12-07T02:41:42;12.90;;;8.30;;
31770;SDS011;18343;50.152;8.182;2022-12-07T02:44:31;14.57;;;8.10;;
31770;SDS011;18343;50.152;8.182;2022-12-07T02:47:18;17.05;;;8.50;;
31770;SDS011;18343;50.152;8.182;2022-12-07T02:50:06;14.55;;;8.60;;
31770;SDS011;18343;50.152;8.182;2022-12-07T02:52:53;15.80;;;8.82;;
31770;SDS011;18343;50.152;8.182;2022-12-07T02:55:39;15.35;;;8.70;;
31770;SDS011;18343;50.152;8.182;2022-12-07T02:58:29;15.38;;;9.68;;
31770;SDS011;18343;50.152;8.182;2022-12-07T03:01:28;18.45;;;9.13;;
31770;SDS011;18343;50.152;8.182;2022-12-07T03:04:32;19.40;;;10.02;;
31770;SDS011;18343;50.152;8.182;2022-12-07T03:07:30;14.98;;;9.32;;
31770;SDS011;18343;50.152;8.182;2022-12-07T03:13:14;15.50;;;9.27;;
31770;SDS011;18343;50.152;8.182;2022-12-07T03:16:07;20.45;;;10.55;;
31770;SDS011;18343;50.152;8.182;2022-12-07T03:18:59;15.90;;;9.73;;
31770;SDS011;18343;50.152;8.182;2022-12-07T03:21:53;16.85;;;10.13;;
31770;SDS011;18343;50.152;8.182;2022-12-07T03:24:43;19.90;;;11.00;;
31770;SDS011;18343;50.152;8.182;2022-12-07T03:27:32;19.17;;;10.75;;
31770;SDS011;18343;50.152;8.182;2022-12-07T03:30:22;17.70;;;10.90;;
31770;SDS011;18343;50.152;8.182;2022-12-07T03:33:12;18.77;;;11.27;;
31770;SDS011;18343;50.152;8.182;2022-12-07T03:36:06;18.77;;;11.30;;
31770;SDS011;18343;50.152;8.182;2022-12-07T03:38:57;19.15;;;11.65;;
31770;SDS011;18343;50.152;8.182;2022-12-07T03:41:53;17.98;;;11.30;;
31770;SDS011;18343;50.152;8.182;2022-12-07T03:44:40;17.20;;;11.15;;
31770;SDS011;18343;50.152;8.182;2022-12-07T03:47:26;18.13;;;10.77;;
31770;SDS011;18343;50.152;8.182;2022-12-07T03:50:20;19.70;;;11.25;;
31770;SDS011;18343;50.152;8.182;2022-12-07T03:53:13;21.55;;;12.35;;
31770;SDS011;18343;50.152;8.182;2022-12-07T03:56:03;18.05;;;11.45;;
31770;SDS011;18343;50.152;8.182;2022-12-07T03:58:53;21.83;;;12.77;;
31770;SDS011;18343;50.152;8.182;2022-12-07T04:01:40;20.33;;;11.82;;
31770;SDS011;18343;50.152;8.182;2022-12-07T04:04:27;19.02;;;11.73;;
31770;SDS011;18343;50.152;8.182;2022-12-07T04:07:13;23.42;;;12.85;;
31770;SDS011;18343;50.152;8.182;2022-12-07T04:09:58;21.38;;;12.55;;
31770;SDS011;18343;50.152;8.182;2022-12-07T04:12:50;22.02;;;12.57;;
31770;SDS011;18343;50.152;8.182;2022-12-07T04:15:37;20.45;;;12.68;;
31770;SDS011;18343;50.152;8.182;2022-12-07T04:18:22;22.55;;;13.38;;
31770;SDS011;18343;50.152;8.182;2022-12-07T04:21:08;23.83;;;13.07;;
31770;SDS011;18343;50.152;8.182;2022-12-07T04:23:53;21.38;;;12.93;;
31770;SDS011;18343;50.152;8.182;2022-12-07T04:26:38;21.75;;;12.68;;
31770;SDS011;18343;50.152;8.182;2022-12-07T04:29:25;25.13;;;14.40;;
31770;SDS011;18343;50.152;8.182;2022-12-07T04:32:10;23.05;;;13.65;;
31770;SDS011;18343;50.152;8.182;2022-12-07T04:34:56;23.80;;;13.85;;
31770;SDS011;18343;50.152;8.182;2022-12-07T04:37:41;23.48;;;14.25;;
31770;SDS011;18343;50.152;8.182;2022-12-07T04:40:30;22.08;;;13.13;;
31770;SDS011;18343;50.152;8.182;2022-12-07T04:43:15;25.58;;;14.52;;
31770;SDS011;18343;50.152;8.182;2022-12-07T04:46:01;23.95;;;14.07;;
31770;SDS011;18343;50.152;8.182;2022-12-07T04:48:47;25.42;;;14.00;;
31770;SDS011;18343;50.152;8.182;2022-12-07T04:51:33;23.90;;;13.77;;
31770;SDS011;18343;50.152;8.182;2022-12-07T04:54:18;24.38;;;14.57;;
31770;SDS011;18343;50.152;8.182;2022-12-07T04:57:03;23.25;;;13.30;;
31770;SDS011;18343;50.152;8.182;2022-12-07T04:59:49;23.50;;;14.43;;
31770;SDS011;18343;50.152;8.182;2022-12-07T05:02:36;23.33;;;14.48;;
31770;SDS011;18343;50.152;8.182;2022-12-07T05:05:21;24.67;;;14.63;;
31770;SDS011;18343;50.152;8.182;2022-12-07T05:08:07;27.70;;;13.68;;
31770;SDS011;18343;50.152;8.182;2022-12-07T05:10:52;22.98;;;14.02;;
31770;SDS011;18343;50.152;8.182;2022-12-07T05:13:38;25.48;;;14.88;;
31770;SDS011;18343;50.152;8.182;2022-12-07T05:16:23;26.70;;;15.15;;
31770;SDS011;18343;50.152;8.182;2022-12-07T05:19:10;24.58;;;14.40;;
31770;SDS011;18343;50.152;8.182;2022-12-07T05:21:56;26.63;;;14.90;;
31770;SDS011;18343;50.152;8.182;2022-12-07T05:24:41;26.83;;;15.07;;
31770;SDS011;18343;50.152;8.182;2022-12-07T05:27:26;22.95;;;14.07;;
31770;SDS011;18343;50.152;8.182;2022-12-07T05:30:12;27.05;;;14.80;;
31770;SDS011;18343;50.152;8.182;2022-12-07T05:32:57;26.85;;;15.57;;
31770;SDS011;18343;50.152;8.182;2022-12-07T05:35:43;27.23;;;14.38;;
31770;SDS011;18343;50.152;8.182;2022-12-07T05:38:28;23.73;;;13.82;;
31770;SDS011;18343;50.152;8.182;2022-12-07T05:41:14;25.25;;;14.52;;
31770;SDS011;18343;50.152;8.182;2022-12-07T05:44:20;26.65;;;14.82;;
31770;SDS011;18343;50.152;8.182;2022-12-07T05:47:05;26.00;;;15.07;;
31770;SDS011;18343;50.152;8.182;2022-12-07T05:49:51;25.83;;;15.10;;
31770;SDS011;18343;50.152;8.182;2022-12-07T05:52:37;24.52;;;14.82;;
31770;SDS011;18343;50.152;8.182;2022-12-07T05:55:23;25.42;;;14.40;;
31770;SDS011;18343;50.152;8.182;2022-12-07T05:58:09;24.75;;;13.95;;
31770;SDS011;18343;50.152;8.182;2022-12-07T06:01:13;25.05;;;15.27;;
31770;SDS011;18343;50.152;8.182;2022-12-07T06:03:58;22.60;;;13.75;;
31770;SDS011;18343;50.152;8.182;2022-12-07T06:06:44;21.95;;;12.98;;
31770;SDS011;18343;50.152;8.182;2022-12-07T06:09:30;22.70;;;14.48;;
31770;SDS011;18343;50.152;8.182;2022-12-07T06:12:17;25.40;;;14.82;;
31770;SDS011;18343;50.152;8.182;2022-12-07T06:15:23;23.10;;;13.73;;
31770;SDS011;18343;50.152;8.182;2022-12-07T06:18:08;25.90;;;14.43;;
31770;SDS011;18343;50.152;8.182;2022-12-07T06:20:54;25.55;;;14.60;;
31770;SDS011;18343;50.152;8.182;2022-12-07T06:23:39;22.40;;;13.57;;
31770;SDS011;18343;50.152;8.182;2022-12-07T06:26:25;25.02;;;13.77;;
31770;SDS011;18343;50.152;8.182;2022-12-07T06:29:10;21.02;;;12.68;;
31770;SDS011;18343;50.152;8.182;2022-12-07T06:31:56;20.23;;;12.23;;
31770;SDS011;18343;50.152;8.182;2022-12-07T06:34:42;19.85;;;12.00;;
31770;SDS011;18343;50.152;8.182;2022-12-07T06:37:28;21.88;;;11.70;;
31770;SDS011;18343;50.152;8.182;2022-12-07T06:40:13;18.23;;;11.88;;
31770;SDS011;18343;50.152;8.182;2022-12-07T06:42:59;18.90;;;10.80;;
31770;SDS011;18343;50.152;8.182;2022-12-07T06:45:45;20.05;;;11.63;;
31770;SDS011;18343;50.152;8.182;2022-12-07T06:48:30;16.25;;;10.52;;
31770;SDS011;18343;50.152;8.182;2022-12-07T06:51:15;17.27;;;9.85;;
31770;SDS011;18343;50.152;8.182;2022-12-07T06:54:01;15.15;;;9.75;;
31770;SDS011;18343;50.152;8.182;2022-12-07T06:56:47;14.25;;;8.80;;
31770;SDS011;18343;50.152;8.182;2022-12-07T06:59:34;13.18;;;8.93;;
31770;SDS011;18343;50.152;8.182;2022-12-07T07:02:19;14.68;;;8.70;;
31770;SDS011;18343;50.152;8.182;2022-12-07T07:05:04;14.52;;;8.82;;
31770;SDS011;18343;50.152;8.182;2022-12-07T07:07:51;15.00;;;9.02;;
31770;SDS011;18343;50.152;8.182;2022-12-07T07:10:37;13.73;;;9.52;;
31770;SDS011;18343;50.152;8.182;2022-12-07T07:13:23;12.60;;;8.05;;
31770;SDS011;18343;50.152;8.182;2022-12-07T07:16:09;12.05;;;7.88;;
31770;SDS011;18343;50.152;8.182;2022-12-07T07:18:54;13.63;;;8.63;;
31770;SDS011;18343;50.152;8.182;2022-12-07T07:21:40;13.98;;;8.68;;
31770;SDS011;18343;50.152;8.182;2022-12-07T07:24:25;12.13;;;8.02;;
31770;SDS011;18343;50.152;8.182;2022-12-07T07:27:11;14.65;;;8.98;;
31770;SDS011;18343;50.152;8.182;2022-12-07T07:29:56;13.15;;;8.60;;
31770;SDS011;18343;50.152;8.182;2022-12-07T07:32:42;15.70;;;9.25;;
31770;SDS011;18343;50.152;8.182;2022-12-07T07:35:28;16.52;;;9.38;;
31770;SDS011;18343;50.152;8.182;2022-12-07T07:38:16;14.68;;;9.13;;
31770;SDS011;18343;50.152;8.182;2022-12-07T07:41:02;14.27;;;9.43;;
31770;SDS011;18343;50.152;8.182;2022-12-07T07:43:49;14.43;;;8.70;;
31770;SDS011;18343;50.152;8.182;2022-12-07T07:46:35;15.02;;;9.07;;
31770;SDS011;18343;50.152;8.182;2022-12-07T07:49:20;16.05;;;10.25;;
31770;SDS011;18343;50.152;8.182;2022-12-07T07:52:06;15.45;;;9.43;;
31770;SDS011;18343;50.152;8.182;2022-12-07T07:54:51;15.27;;;9.82;;
31770;SDS011;18343;50.152;8.182;2022-12-07T07:57:39;14.88;;;9.55;;
31770;SDS011;18343;50.152;8.182;2022-12-07T08:00:25;14.77;;;9.52;;
31770;SDS011;18343;50.152;8.182;2022-12-07T08:03:11;14.30;;;9.05;;
31770;SDS011;18343;50.152;8.182;2022-12-07T08:05:57;13.38;;;8.95;;
31770;SDS011;18343;50.152;8.182;2022-12-07T08:08:42;14.18;;;9.25;;
31770;SDS011;18343;50.152;8.182;2022-12-07T08:11:28;12.88;;;8.57;;
31770;SDS011;18343;50.152;8.182;2022-12-07T08:14:13;15.20;;;8.35;;
31770;SDS011;18343;50.152;8.182;2022-12-07T08:16:59;14.93;;;9.23;;
31770;SDS011;18343;50.152;8.182;2022-12-07T08:19:45;15.27;;;9.23;;
31770;SDS011;18343;50.152;8.182;2022-12-07T08:22:31;16.58;;;10.00;;
31770;SDS011;18343;50.152;8.182;2022-12-07T08:25:16;18.67;;;9.43;;
31770;SDS011;18343;50.152;8.182;2022-12-07T08:28:01;12.73;;;8.73;;
31770;SDS011;18343;50.152;8.182;2022-12-07T08:30:47;15.88;;;9.63;;
31770;SDS011;18343;50.152;8.182;2022-12-07T08:33:32;16.55;;;10.10;;
31770;SDS011;18343;50.152;8.182;2022-12-07T08:36:18;16.13;;;9.52;;
31770;SDS011;18343;50.152;8.182;2022-12-07T08:39:05;15.57;;;9.77;;
31770;SDS011;18343;50.152;8.182;2022-12-07T08:41:52;14.27;;;9.77;;
31770;SDS011;18343;50.152;8.182;2022-12-07T08:44:37;13.20;;;8.82;;
31770;SDS011;18343;50.152;8.182;2022-12-07T08:47:24;14.50;;;8.55;;
31770;SDS011;18343;50.152;8.182;2022-12-07T08:50:09;15.23;;;9.27;;
31770;SDS011;18343;50.152;8.182;2022-12-07T08:52:56;15.60;;;8.73;;
31770;SDS011;18343;50.152;8.182;2022-12-07T08:55:44;15.95;;;9.15;;
31770;SDS011;18343;50.152;8.182;2022-12-07T08:58:31;14.80;;;9.13;;
31770;SDS011;18343;50.152;8.182;2022-12-07T09:01:17;17.55;;;9.35;;
31770;SDS011;18343;50.152;8.182;2022-12-07T09:04:03;13.63;;;8.93;;
31770;SDS011;18343;50.152;8.182;2022-12-07T09:06:49;14.80;;;9.10;;
31770;SDS011;18343;50.152;8.182;2022-12-07T09:09:34;12.57;;;8.32;;
31770;SDS011;18343;50.152;8.182;2022-12-07T09:12:21;14.10;;;8.30;;
31770;SDS011;18343;50.152;8.182;2022-12-07T09:15:06;12.65;;;8.52;;
31770;SDS011;18343;50.152;8.182;2022-12-07T09:17:52;13.48;;;8.32;;
31770;SDS011;18343;50.152;8.182;2022-12-07T09:20:38;13.40;;;8.25;;
31770;SDS011;18343;50.152;8.182;2022-12-07T09:23:24;12.57;;;7.43;;
31770;SDS011;18343;50.152;8.182;2022-12-07T09:26:09;15.50;;;8.63;;
31770;SDS011;18343;50.152;8.182;2022-12-07T09:28:56;19.75;;;8.90;;
31770;SDS011;18343;50.152;8.182;2022-12-07T09:31:41;13.18;;;8.20;;
31770;SDS011;18343;50.152;8.182;2022-12-07T09:34:27;14.07;;;8.65;;
31770;SDS011;18343;50.152;8.182;2022-12-07T09:37:15;14.18;;;8.60;;
31770;SDS011;18343;50.152;8.182;2022-12-07T09:40:00;13.30;;;9.18;;
31770;SDS011;18343;50.152;8.182;2022-12-07T09:42:47;13.70;;;8.48;;
31770;SDS011;18343;50.152;8.182;2022-12-07T09:45:36;17.02;;;9.15;;
31770;SDS011;18343;50.152;8.182;2022-12-07T09:48:23;15.38;;;8.68;;
31770;SDS011;18343;50.152;8.182;2022-12-07T09:51:16;17.23;;;10.07;;
31770;SDS011;18343;50.152;8.182;2022-12-07T09:54:05;14.93;;;8.35;;
31770;SDS011;18343;50.152;8.182;2022-12-07T09:56:50;12.45;;;7.90;;
31770;SDS011;18343;50.152;8.182;2022-12-07T09:59:38;14.68;;;9.00;;
31770;SDS011;18343;50.152;8.182;2022-12-07T10:02:28;16.30;;;8.55;;
31770;SDS011;18343;50.152;8.182;2022-12-07T10:05:22;14.90;;;8.52;;
31770;SDS011;18343;50.152;8.182;2022-12-07T10:08:16;12.90;;;8.68;;
31770;SDS011;18343;50.152;8.182;2022-12-07T10:11:02;13.63;;;8.80;;
31770;SDS011;18343;50.152;8.182;2022-12-07T10:13:54;14.43;;;8.60;;
31770;SDS011;18343;50.152;8.182;2022-12-07T10:16:54;14.52;;;8.88;;
31770;SDS011;18343;50.152;8.182;2022-12-07T10:19:41;16.00;;;8.50;;
31770;SDS011;18343;50.152;8.182;2022-12-07T10:22:27;12.45;;;8.48;;
31770;SDS011;18343;50.152;8.182;2022-12-07T10:25:16;20.85;;;8.13;;
31770;SDS011;18343;50.152;8.182;2022-12-07T10:28:12;14.77;;;9.15;;
31770;SDS011;18343;50.152;8.182;2022-12-07T10:31:00;16.30;;;9.77;;
31770;SDS011;18343;50.152;8.182;2022-12-07T10:34:00;15.52;;;7.63;;
31770;SDS011;18343;50.152;8.182;2022-12-07T10:36:46;13.35;;;7.30;;
31770;SDS011;18343;50.152;8.182;2022-12-07T10:39:32;17.58;;;7.80;;
31770;SDS011;18343;50.152;8.182;2022-12-07T10:42:27;12.93;;;7.32;;
31770;SDS011;18343;50.152;8.182;2022-12-07T10:45:16;14.63;;;7.55;;
31770;SDS011;18343;50.152;8.182;2022-12-07T10:48:04;15.63;;;6.82;;
31770;SDS011;18343;50.152;8.182;2022-12-07T10:51:02;14.52;;;6.75;;
31770;SDS011;18343;50.152;8.182;2022-12-07T10:53:59;13.50;;;5.40;;
31770;SDS011;18343;50.152;8.182;2022-12-07T10:57:02;11.73;;;5.32;;
31770;SDS011;18343;50.152;8.182;2022-12-07T11:00:08;12.38;;;5.32;;
31770;SDS011;18343;50.152;8.182;2022-12-07T11:03:11;14.55;;;4.85;;
31770;SDS011;18343;50.152;8.182;2022-12-07T11:06:26;9.05;;;5.22;;
31770;SDS011;18343;50.152;8.182;2022-12-07T11:12:43;10.10;;;5.75;;
31770;SDS011;18343;50.152;8.182;2022-12-07T11:15:49;11.60;;;4.90;;
31770;SDS011;18343;50.152;8.182;2022-12-07T11:18:52;12.95;;;5.50;;
31770;SDS011;18343;50.152;8.182;2022-12-07T11:22:13;11.20;;;4.60;;
31770;SDS011;18343;50.152;8.182;2022-12-07T11:25:13;14.73;;;5.20;;
31770;SDS011;18343;50.152;8.182;2022-12-07T11:28:13;12.32;;;4.18;;
31770;SDS011;18343;50.152;8.182;2022-12-07T11:31:12;6.95;;;4.32;;
31770;SDS011;18343;50.152;8.182;2022-12-07T11:34:10;6.82;;;4.10;;
31770;SDS011;18343;50.152;8.182;2022-12-07T11:37:06;9.25;;;4.28;;
31770;SDS011;18343;50.152;8.182;2022-12-07T11:39:59;10.18;;;5.82;;
31770;SDS011;18343;50.152;8.182;2022-12-07T11:42:51;7.40;;;4.22;;
31770;SDS011;18343;50.152;8.182;2022-12-07T11:45:44;8.98;;;4.05;;
31770;SDS011;18343;50.152;8.182;2022-12-07T11:48:35;8.48;;;4.30;;
31770;SDS011;18343;50.152;8.182;2022-12-07T11:51:26;8.68;;;4.32;;
31770;SDS011;18343;50.152;8.182;2022-12-07T11:54:15;8.13;;;4.43;;
31770;SDS011;18343;50.152;8.182;2022-12-07T11:57:08;9.82;;;4.70;;
31770;SDS011;18343;50.152;8.182;2022-12-07T12:00:04;9.50;;;4.47;;
31770;SDS011;18343;50.152;8.182;2022-12-07T12:03:00;7.30;;;4.65;;
31770;SDS011;18343;50.152;8.182;2022-12-07T12:05:52;10.20;;;4.30;;
31770;SDS011;18343;50.152;8.182;2022-12-07T12:08:39;8.05;;;4.28;;
31770;SDS011;18343;50.152;8.182;2022-12-07T12:11:33;10.60;;;4.28;;
31770;SDS011;18343;50.152;8.182;2022-12-07T12:14:37;8.95;;;4.70;;
31770;SDS011;18343;50.152;8.182;2022-12-07T12:17:45;7.70;;;4.68;;
31770;SDS011;18343;50.152;8.182;2022-12-07T12:21:09;9.23;;;4.93;;
31770;SDS011;18343;50.152;8.182;2022-12-07T12:23:57;8.35;;;4.43;;
31770;SDS011;18343;50.152;8.182;2022-12-07T12:26:49;7.28;;;3.78;;
31770;SDS011;18343;50.152;8.182;2022-12-07T12:29:38;8.82;;;4.13;;
31770;SDS011;18343;50.152;8.182;2022-12-07T12:32:31;7.53;;;3.90;;
31770;SDS011;18343;50.152;8.182;2022-12-07T12:35:28;8.65;;;4.47;;
31770;SDS011;18343;50.152;8.182;2022-12-07T12:38:26;8.02;;;4.20;;
31770;SDS011;18343;50.152;8.182;2022-12-07T12:48:10;11.10;;;4.65;;
31770;SDS011;18343;50.152;8.182;2022-12-07T12:54:24;9.40;;;4.13;;
31770;SDS011;18343;50.152;8.182;2022-12-07T12:57:12;9.38;;;4.03;;
31770;SDS011;18343;50.152;8.182;2022-12-07T13:00:15;10.65;;;4.00;;
31770;SDS011;18343;50.152;8.182;2022-12-07T13:03:03;11.35;;;3.88;;
31770;SDS011;18343;50.152;8.182;2022-12-07T13:05:49;11.00;;;4.15;;
31770;SDS011;18343;50.152;8.182;2022-12-07T13:09:19;8.38;;;3.83;;
31770;SDS011;18343;50.152;8.182;2022-12-07T13:12:11;10.90;;;3.80;;
31770;SDS011;18343;50.152;8.182;2022-12-07T13:15:00;10.13;;;4.10;;
31770;SDS011;18343;50.152;8.182;2022-12-07T13:18:00;8.73;;;4.22;;
31770;SDS011;18343;50.152;8.182;2022-12-07T13:20:50;10.98;;;4.10;;
31770;SDS011;18343;50.152;8.182;2022-12-07T13:23:39;9.73;;;4.28;;
31770;SDS011;18343;50.152;8.182;2022-12-07T13:26:41;14.60;;;4.57;;
31770;SDS011;18343;50.152;8.182;2022-12-07T13:29:28;9.77;;;4.15;;
31770;SDS011;18343;50.152;8.182;2022-12-07T13:38:25;6.97;;;3.50;;
31770;SDS011;18343;50.152;8.182;2022-12-07T13:41:16;6.65;;;3.42;;
31770;SDS011;18343;50.152;8.182;2022-12-07T13:44:08;9.85;;;2.95;;
31770;SDS011;18343;50.152;8.182;2022-12-07T13:46:59;6.43;;;2.53;;
31770;SDS011;18343;50.152;8.182;2022-12-07T13:49:52;5.35;;;2.08;;
31770;SDS011;18343;50.152;8.182;2022-12-07T13:52:43;5.60;;;2.20;;
31770;SDS011;18343;50.152;8.182;2022-12-07T13:55:29;6.65;;;3.45;;
31770;SDS011;18343;50.152;8.182;2022-12-07T13:58:15;6.50;;;2.67;;
31770;SDS011;18343;50.152;8.182;2022-12-07T14:01:01;5.97;;;1.80;;
31770;SDS011;18343;50.152;8.182;2022-12-07T14:03:47;4.00;;;1.80;;
31770;SDS011;18343;50.152;8.182;2022-12-07T14:06:35;5.50;;;1.90;;
31770;SDS011;18343;50.152;8.182;2022-12-07T14:09:31;5.25;;;1.85;;
31770;SDS011;18343;50.152;8.182;2022-12-07T14:12:16;5.60;;;1.60;;
31770;SDS011;18343;50.152;8.182;2022-12-07T14:15:02;5.45;;;1.75;;
31770;SDS011;18343;50.152;8.182;2022-12-07T14:17:51;5.93;;;2.10;;
31770;SDS011;18343;50.152;8.182;2022-12-07T14:20:39;6.88;;;2.65;;
31770;SDS011;18343;50.152;8.182;2022-12-07T14:23:25;6.72;;;2.35;;
31770;SDS011;18343;50.152;8.182;2022-12-07T14:26:12;7.43;;;2.13;;
31770;SDS011;18343;50.152;8.182;2022-12-07T14:32:22;3.85;;;2.03;;
31770;SDS011;18343;50.152;8.182;2022-12-07T14:35:14;4.13;;;2.10;;
31770;SDS011;18343;50.152;8.182;2022-12-07T14:38:01;5.90;;;1.90;;
31770;SDS011;18343;50.152;8.182;2022-12-07T14:40:46;3.67;;;2.10;;
31770;SDS011;18343;50.152;8.182;2022-12-07T14:43:33;7.93;;;2.63;;
31770;SDS011;18343;50.152;8.182;2022-12-07T14:46:19;7.10;;;2.15;;
31770;SDS011;18343;50.152;8.182;2022-12-07T14:49:04;5.32;;;2.45;;
31770;SDS011;18343;50.152;8.182;2022-12-07T14:51:50;5.63;;;2.17;;
31770;SDS011;18343;50.152;8.182;2022-12-07T14:54:37;5.07;;;2.33;;
31770;SDS011;18343;50.152;8.182;2022-12-07T14:57:22;9.18;;;3.00;;
31770;SDS011;18343;50.152;8.182;2022-12-07T15:00:09;6.53;;;2.92;;
31770;SDS011;18343;50.152;8.182;2022-12-07T15:03:00;8.30;;;2.78;;
31770;SDS011;18343;50.152;8.182;2022-12-07T15:05:48;6.47;;;2.40;;
31770;SDS011;18343;50.152;8.182;2022-12-07T15:08:42;6.88;;;3.28;;
31770;SDS011;18343;50.152;8.182;2022-12-07T15:11:28;7.68;;;2.83;;
31770;SDS011;18343;50.152;8.182;2022-12-07T15:14:14;4.88;;;2.30;;
31770;SDS011;18343;50.152;8.182;2022-12-07T15:16:59;5.22;;;2.58;;
31770;SDS011;18343;50.152;8.182;2022-12-07T15:19:44;7.05;;;2.13;;
31770;SDS011;18343;50.152;8.182;2022-12-07T15:22:30;7.63;;;2.33;;
31770;SDS011;18343;50.152;8.182;2022-12-07T15:25:17;3.67;;;2.10;;
31770;SDS011;18343;50.152;8.182;2022-12-07T15:28:02;10.88;;;2.13;;
31770;SDS011;18343;50.152;8.182;2022-12-07T15:30:49;3.83;;;2.03;;
31770;SDS011;18343;50.152;8.182;2022-12-07T15:33:35;5.78;;;2.30;;
31770;SDS011;18343;50.152;8.182;2022-12-07T15:36:26;8.02;;;2.13;;
31770;SDS011;18343;50.152;8.182;2022-12-07T15:39:14;6.80;;;2.80;;
31770;SDS011;18343;50.152;8.182;2022-12-07T15:42:01;4.13;;;2.08;;
31770;SDS011;18343;50.152;8.182;2022-12-07T15:44:46;5.25;;;2.47;;
31770;SDS011;18343;50.152;8.182;2022-12-07T15:47:52;6.07;;;2.28;;
31770;SDS011;18343;50.152;8.182;2022-12-07T15:50:38;6.80;;;2.67;;
31770;SDS011;18343;50.152;8.182;2022-12-07T15:53:24;6.57;;;2.60;;
31770;SDS011;18343;50.152;8.182;2022-12-07T15:56:09;11.60;;;2.70;;
31770;SDS011;18343;50.152;8.182;2022-12-07T15:58:57;5.07;;;2.50;;
31770;SDS011;18343;50.152;8.182;2022-12-07T16:01:43;5.00;;;2.65;;
31770;SDS011;18343;50.152;8.182;2022-12-07T16:04:29;5.40;;;3.15;;
31770;SDS011;18343;50.152;8.182;2022-12-07T16:07:14;5.50;;;2.85;;
31770;SDS011;18343;50.152;8.182;2022-12-07T16:09:59;7.53;;;3.45;;
31770;SDS011;18343;50.152;8.182;2022-12-07T16:12:49;6.43;;;2.97;;
31770;SDS011;18343;50.152;8.182;2022-12-07T16:15:37;7.43;;;3.28;;
31770;SDS011;18343;50.152;8.182;2022-12-07T16:18:24;7.65;;;3.95;;
31770;SDS011;18343;50.152;8.182;2022-12-07T16:21:13;5.75;;;2.83;;
31770;SDS011;18343;50.152;8.182;2022-12-07T16:24:00;5.97;;;3.40;;
31770;SDS011;18343;50.152;8.182;2022-12-07T16:26:46;8.25;;;3.83;;
31770;SDS011;18343;50.152;8.182;2022-12-07T16:29:31;7.55;;;4.13;;
31770;SDS011;18343;50.152;8.182;2022-12-07T16:32:17;9.15;;;3.90;;
31770;SDS011;18343;50.152;8.182;2022-12-07T16:35:03;8.20;;;4.00;;
31770;SDS011;18343;50.152;8.182;2022-12-07T16:37:49;8.23;;;4.47;;
31770;SDS011;18343;50.152;8.182;2022-12-07T16:40:34;10.25;;;4.63;;
31770;SDS011;18343;50.152;8.182;2022-12-07T16:43:19;10.40;;;4.93;;
31770;SDS011;18343;50.152;8.182;2022-12-07T16:46:06;8.10;;;4.40;;
31770;SDS011;18343;50.152;8.182;2022-12-07T16:48:52;9.48;;;4.30;;
31770;SDS011;18343;50.152;8.182;2022-12-07T16:51:37;10.60;;;4.10;;
31770;SDS011;18343;50.152;8.182;2022-12-07T16:54:23;7.30;;;4.30;;
31770;SDS011;18343;50.152;8.182;2022-12-07T16:57:08;8.00;;;4.63;;
31770;SDS011;18343;50.152;8.182;2022-12-07T16:59:56;9.40;;;5.40;;
31770;SDS011;18343;50.152;8.182;2022-12-07T17:02:41;10.77;;;6.38;;
31770;SDS011;18343;50.152;8.182;2022-12-07T17:05:27;15.45;;;7.93;;
31770;SDS011;18343;50.152;8.182;2022-12-07T17:08:16;21.67;;;9.65;;
31770;SDS011;18343;50.152;8.182;2022-12-07T17:11:02;18.15;;;11.40;;
31770;SDS011;18343;50.152;8.182;2022-12-07T17:13:55;23.60;;;13.00;;